HAZ2721 ZSHC-ZJQH
Flight info
| Callsign | HAZ2721 |
|---|---|
| Flight time | N/A |
| Altitude | 34100 |
| Route | ELNEX A599 PLT W19 NOMAR W18 NLG W23 ZUH R200 BIGRO G221 ANPIM |
| Aircraft | A321/M-SDE3FGHIRWY/LB1 |
Departure
| Time | 2026-05-05 11:58 |
|---|---|
| Airport | Hangzhou Xiaoshan International Airport (ZSHC) |
Arrival
| Time | N/A |
|---|---|
| Airport | Qionghai Bo'ao Airport (ZJQH) |
| Time | Latitude | Longitude | Altitude | Speed | Heading |
|---|---|---|---|---|---|
| 2026-05-05 11:36 | 30.24140 | 120.42699 | 32 ft | 0 kts | 163° |
| 2026-05-05 11:42 | 30.24141 | 120.42699 | 32 ft | 0 kts | 163° |
| 2026-05-05 11:48 | 30.24180 | 120.42685 | 32 ft | 2 kts | 163° |
| 2026-05-05 11:48 | 30.24203 | 120.42679 | 30 ft | 4 kts | 177° |
| 2026-05-05 11:48 | 30.24229 | 120.42682 | 30 ft | 4 kts | 198° |
| 2026-05-05 11:49 | 30.24253 | 120.42695 | 31 ft | 4 kts | 220° |
| 2026-05-05 11:49 | 30.24269 | 120.42716 | 30 ft | 1 kts | 242° |
| 2026-05-05 11:49 | 30.24269 | 120.42717 | 30 ft | 0 kts | 242° |
| 2026-05-05 11:52 | 30.24256 | 120.42688 | 31 ft | 10 kts | 242° |
| 2026-05-05 11:52 | 30.24219 | 120.42607 | 32 ft | 11 kts | 242° |
| 2026-05-05 11:52 | 30.24186 | 120.42535 | 32 ft | 10 kts | 243° |
| 2026-05-05 11:52 | 30.24142 | 120.42434 | 32 ft | 17 kts | 243° |
| 2026-05-05 11:53 | 30.24089 | 120.42317 | 32 ft | 16 kts | 243° |
| 2026-05-05 11:53 | 30.24041 | 120.42209 | 32 ft | 14 kts | 243° |
| 2026-05-05 11:53 | 30.23997 | 120.42110 | 32 ft | 13 kts | 243° |
| 2026-05-05 11:53 | 30.23958 | 120.42021 | 32 ft | 13 kts | 242° |
| 2026-05-05 11:54 | 30.23909 | 120.41914 | 32 ft | 15 kts | 242° |
| 2026-05-05 11:54 | 30.23863 | 120.41800 | 32 ft | 16 kts | 257° |
| 2026-05-05 11:54 | 30.23907 | 120.41693 | 32 ft | 12 kts | 264° |
| 2026-05-05 11:54 | 30.23858 | 120.41575 | 32 ft | 19 kts | 243° |
| 2026-05-05 11:55 | 30.23801 | 120.41443 | 32 ft | 18 kts | 243° |
| 2026-05-05 11:55 | 30.23747 | 120.41321 | 32 ft | 16 kts | 243° |
| 2026-05-05 11:55 | 30.23696 | 120.41209 | 32 ft | 15 kts | 242° |
| 2026-05-05 11:55 | 30.23639 | 120.41081 | 32 ft | 20 kts | 242° |
| 2026-05-05 11:56 | 30.23624 | 120.40962 | 32 ft | 13 kts | 318° |
| 2026-05-05 11:56 | 30.23699 | 120.40917 | 33 ft | 11 kts | 334° |
| 2026-05-05 11:56 | 30.23757 | 120.40884 | 32 ft | 8 kts | 334° |
| 2026-05-05 11:56 | 30.23806 | 120.40860 | 33 ft | 10 kts | 340° |
| 2026-05-05 11:57 | 30.23856 | 120.40906 | 34 ft | 10 kts | 69° |
| 2026-05-05 11:57 | 30.23876 | 120.40956 | 34 ft | 0 kts | 62° |
| 2026-05-05 11:57 | 30.23907 | 120.41025 | 34 ft | 35 kts | 63° |
| 2026-05-05 11:57 | 30.24126 | 120.41525 | 31 ft | 101 kts | 63° |
| 2026-05-05 11:58 | 30.24529 | 120.42433 | 30 ft | 151 kts | 62° |
| 2026-05-05 11:58 | 30.25058 | 120.43632 | 137 ft | 179 kts | 63° |
| 2026-05-05 11:58 | 30.25611 | 120.44915 | 666 ft | 179 kts | 68° |
| 2026-05-05 11:58 | 30.26260 | 120.46161 | 1224 ft | 185 kts | 51° |
| 2026-05-05 11:59 | 30.27384 | 120.46907 | 1783 ft | 193 kts | 13° |
| 2026-05-05 11:59 | 30.28724 | 120.46873 | 2209 ft | 194 kts | 355° |
| 2026-05-05 11:59 | 30.30080 | 120.46835 | 2659 ft | 195 kts | 354° |
| 2026-05-05 11:59 | 30.31359 | 120.46371 | 3089 ft | 194 kts | 326° |
| 2026-05-05 12:00 | 30.32333 | 120.45271 | 3285 ft | 204 kts | 297° |
| 2026-05-05 12:00 | 30.32752 | 120.43673 | 3418 ft | 215 kts | 267° |
| 2026-05-05 12:00 | 30.32444 | 120.41984 | 3543 ft | 227 kts | 243° |
| 2026-05-05 12:00 | 30.31686 | 120.40279 | 3681 ft | 251 kts | 241° |
| 2026-05-05 12:01 | 30.30866 | 120.38451 | 4221 ft | 260 kts | 241° |
| 2026-05-05 12:01 | 30.30032 | 120.36586 | 4948 ft | 262 kts | 241° |
| 2026-05-05 12:01 | 30.29192 | 120.34698 | 5627 ft | 265 kts | 242° |
| 2026-05-05 12:01 | 30.28345 | 120.32799 | 6380 ft | 266 kts | 242° |
| 2026-05-05 12:02 | 30.27494 | 120.30892 | 7099 ft | 268 kts | 242° |
| 2026-05-05 12:02 | 30.26631 | 120.28949 | 7757 ft | 271 kts | 243° |
| 2026-05-05 12:02 | 30.25773 | 120.27015 | 8330 ft | 276 kts | 243° |
| 2026-05-05 12:02 | 30.24870 | 120.24983 | 8923 ft | 282 kts | 243° |
| 2026-05-05 12:03 | 30.23981 | 120.22985 | 9549 ft | 285 kts | 243° |
| 2026-05-05 12:03 | 30.23067 | 120.20931 | 10101 ft | 290 kts | 243° |
| 2026-05-05 12:03 | 30.22110 | 120.18777 | 10263 ft | 311 kts | 244° |
| 2026-05-05 12:03 | 30.21097 | 120.16492 | 10380 ft | 331 kts | 244° |
| 2026-05-05 12:04 | 30.20016 | 120.14058 | 10502 ft | 350 kts | 243° |
| 2026-05-05 12:04 | 30.18876 | 120.11500 | 10621 ft | 367 kts | 244° |
| 2026-05-05 12:04 | 30.17680 | 120.08830 | 10883 ft | 379 kts | 244° |
| 2026-05-05 12:04 | 30.16457 | 120.06103 | 11360 ft | 384 kts | 243° |
| 2026-05-05 12:05 | 30.15221 | 120.03351 | 11872 ft | 387 kts | 244° |
| 2026-05-05 12:05 | 30.13977 | 120.00578 | 12380 ft | 391 kts | 244° |
| 2026-05-05 12:05 | 30.12718 | 119.97774 | 12893 ft | 394 kts | 244° |
| 2026-05-05 12:05 | 30.11450 | 119.94951 | 13403 ft | 398 kts | 244° |
| 2026-05-05 12:06 | 30.10172 | 119.92108 | 13871 ft | 401 kts | 244° |
| 2026-05-05 12:06 | 30.08880 | 119.89236 | 14313 ft | 404 kts | 244° |
| 2026-05-05 12:06 | 30.07581 | 119.86352 | 14751 ft | 406 kts | 244° |
| 2026-05-05 12:06 | 30.06275 | 119.83450 | 15198 ft | 409 kts | 244° |
| 2026-05-05 12:07 | 30.04868 | 119.80585 | 15632 ft | 412 kts | 237° |
| 2026-05-05 12:07 | 30.03044 | 119.78015 | 16067 ft | 417 kts | 226° |
| 2026-05-05 12:07 | 30.00817 | 119.75855 | 16487 ft | 421 kts | 216° |
| 2026-05-05 12:07 | 29.98266 | 119.74160 | 16911 ft | 425 kts | 209° |
| 2026-05-05 12:08 | 29.95631 | 119.72580 | 17342 ft | 428 kts | 209° |
| 2026-05-05 12:08 | 29.92988 | 119.70992 | 17760 ft | 430 kts | 209° |
| 2026-05-05 12:08 | 29.90322 | 119.69384 | 18200 ft | 433 kts | 209° |
| 2026-05-05 12:08 | 29.87646 | 119.67768 | 18581 ft | 435 kts | 209° |
| 2026-05-05 12:09 | 29.84997 | 119.66068 | 18940 ft | 436 kts | 215° |
| 2026-05-05 12:09 | 29.82485 | 119.64103 | 19318 ft | 438 kts | 216° |
| 2026-05-05 12:09 | 29.79973 | 119.62128 | 19722 ft | 439 kts | 216° |
| 2026-05-05 12:09 | 29.77438 | 119.60139 | 20115 ft | 441 kts | 216° |
| 2026-05-05 12:10 | 29.74896 | 119.58151 | 20485 ft | 443 kts | 216° |
| 2026-05-05 12:10 | 29.72343 | 119.56158 | 20835 ft | 445 kts | 216° |
| 2026-05-05 12:10 | 29.69777 | 119.54158 | 21184 ft | 447 kts | 216° |
| 2026-05-05 12:10 | 29.67187 | 119.52140 | 21462 ft | 451 kts | 216° |
| 2026-05-05 12:11 | 29.64592 | 119.50098 | 21795 ft | 453 kts | 218° |
| 2026-05-05 12:11 | 29.62202 | 119.47744 | 22123 ft | 452 kts | 227° |
| 2026-05-05 12:11 | 29.60089 | 119.45073 | 22500 ft | 452 kts | 230° |
| 2026-05-05 12:11 | 29.57989 | 119.42376 | 22839 ft | 454 kts | 230° |
| 2026-05-05 12:12 | 29.55867 | 119.39665 | 23173 ft | 457 kts | 230° |
| 2026-05-05 12:12 | 29.53734 | 119.36955 | 23469 ft | 459 kts | 230° |
| 2026-05-05 12:12 | 29.51587 | 119.34232 | 23749 ft | 461 kts | 230° |
| 2026-05-05 12:12 | 29.49435 | 119.31500 | 24037 ft | 462 kts | 230° |
| 2026-05-05 12:13 | 29.47278 | 119.28764 | 24342 ft | 462 kts | 230° |
| 2026-05-05 12:13 | 29.45116 | 119.26023 | 24646 ft | 463 kts | 230° |
| 2026-05-05 12:13 | 29.42955 | 119.23283 | 24925 ft | 465 kts | 230° |
| 2026-05-05 12:13 | 29.40790 | 119.20531 | 25235 ft | 465 kts | 230° |
| 2026-05-05 12:14 | 29.38619 | 119.17770 | 25528 ft | 466 kts | 230° |
| 2026-05-05 12:14 | 29.36446 | 119.15014 | 25856 ft | 465 kts | 230° |
| 2026-05-05 12:14 | 29.34308 | 119.12310 | 26260 ft | 462 kts | 230° |
| 2026-05-05 12:14 | 29.32122 | 119.09551 | 26649 ft | 460 kts | 230° |
| 2026-05-05 12:15 | 29.30007 | 119.06885 | 27048 ft | 458 kts | 230° |
| 2026-05-05 12:15 | 29.27871 | 119.04195 | 27454 ft | 455 kts | 230° |
| 2026-05-05 12:15 | 29.25750 | 119.01521 | 27863 ft | 453 kts | 230° |
| 2026-05-05 12:15 | 29.23622 | 118.98834 | 28242 ft | 450 kts | 230° |
| 2026-05-05 12:16 | 29.21529 | 118.96193 | 28571 ft | 448 kts | 230° |
| 2026-05-05 12:16 | 29.19433 | 118.93557 | 28924 ft | 446 kts | 230° |
| 2026-05-05 12:16 | 29.17346 | 118.90934 | 29283 ft | 445 kts | 230° |
| 2026-05-05 12:16 | 29.15265 | 118.88323 | 29670 ft | 442 kts | 230° |
| 2026-05-05 12:17 | 29.13198 | 118.85726 | 30009 ft | 441 kts | 231° |
| 2026-05-05 12:17 | 29.11118 | 118.83156 | 30303 ft | 439 kts | 230° |
| 2026-05-05 12:17 | 29.09086 | 118.80567 | 30559 ft | 438 kts | 231° |
| 2026-05-05 12:17 | 29.07046 | 118.77984 | 30825 ft | 437 kts | 231° |
| 2026-05-05 12:18 | 29.04992 | 118.75415 | 31094 ft | 437 kts | 231° |
| 2026-05-05 12:18 | 29.02936 | 118.72862 | 31349 ft | 435 kts | 231° |
| 2026-05-05 12:18 | 29.01581 | 118.71184 | 31545 ft | 434 kts | 231° |
| 2026-05-05 12:18 | 28.99534 | 118.68647 | 31830 ft | 433 kts | 231° |
| 2026-05-05 12:19 | 28.96813 | 118.65263 | 32177 ft | 433 kts | 231° |
| 2026-05-05 12:19 | 28.95467 | 118.63583 | 32304 ft | 434 kts | 231° |
| 2026-05-05 12:19 | 28.93432 | 118.61040 | 32524 ft | 434 kts | 231° |
| 2026-05-05 12:19 | 28.91396 | 118.58498 | 32770 ft | 434 kts | 231° |
| 2026-05-05 12:20 | 28.89332 | 118.55924 | 33022 ft | 433 kts | 231° |
| 2026-05-05 12:20 | 28.87328 | 118.53427 | 33294 ft | 432 kts | 231° |
| 2026-05-05 12:20 | 28.85275 | 118.50872 | 33557 ft | 432 kts | 232° |
| 2026-05-05 12:20 | 28.83271 | 118.48379 | 33863 ft | 431 kts | 232° |
| 2026-05-05 12:21 | 28.81223 | 118.45834 | 34052 ft | 430 kts | 232° |
| 2026-05-05 12:21 | 28.79229 | 118.43353 | 34095 ft | 429 kts | 232° |
| 2026-05-05 12:21 | 28.75193 | 118.38349 | 34097 ft | 429 kts | 232° |
| 2026-05-05 12:22 | 28.71114 | 118.33309 | 34099 ft | 431 kts | 232° |
| 2026-05-05 12:22 | 28.67082 | 118.28321 | 34103 ft | 431 kts | 232° |
| 2026-05-05 12:23 | 28.63018 | 118.23287 | 34087 ft | 431 kts | 232° |
| 2026-05-05 12:23 | 28.58961 | 118.18278 | 34092 ft | 431 kts | 232° |
| 2026-05-05 12:24 | 28.54897 | 118.13271 | 34093 ft | 430 kts | 232° |
| 2026-05-05 12:24 | 28.50838 | 118.08267 | 34099 ft | 431 kts | 232° |
| 2026-05-05 12:25 | 28.46771 | 118.03259 | 34089 ft | 431 kts | 232° |
| 2026-05-05 12:25 | 28.42688 | 117.98256 | 34076 ft | 432 kts | 232° |
| 2026-05-05 12:26 | 28.38568 | 117.93281 | 34083 ft | 433 kts | 231° |